Time,TemperatureF,DewpointF,PressureIn,WindDirection,WindDirectionDegrees,WindSpeedMPH,WindSpeedGustMPH,Humidity,HourlyPrecipIn,Conditions,Clouds,dailyrainin,SoftwareType,DateUTC
2013-04-15 00:02:00,14.0,10.0,-100.00,ESE,110,3.0,4.0,84,-99.99,,,-99.99,,2013-04-15 06:02:00,
2013-04-15 00:12:00,14.0,10.0,-100.00,ESE,110,3.0,4.0,84,-99.99,,,-99.99,,2013-04-15 06:12:00,
2013-04-15 00:52:00,14.0,11.0,-100.00,SE,143,2.0,2.0,85,-99.99,,,-99.99,,2013-04-15 06:52:00,
2013-04-15 01:02:00,14.0,11.0,-100.00,SE,143,2.0,2.0,85,-99.99,,,-99.99,,2013-04-15 07:02:00,
2013-04-15 01:53:00,15.0,12.0,-100.00,SE,125,0.0,1.0,88,-99.99,,,-99.99,,2013-04-15 07:53:00,
2013-04-15 02:02:00,15.0,12.0,-100.00,SE,125,0.0,1.0,88,-99.99,,,-99.99,,2013-04-15 08:02:00,
2013-04-15 02:12:00,15.0,12.0,-100.00,SE,125,0.0,1.0,88,-99.99,,,-99.99,,2013-04-15 08:12:00,
2013-04-15 02:52:00,13.0,9.0,-100.00,SSE,155,2.0,3.0,86,-99.99,,,-99.99,,2013-04-15 08:52:00,
2013-04-15 03:02:00,13.0,9.0,-100.00,SSE,155,2.0,3.0,86,-99.99,,,-99.99,,2013-04-15 09:02:00,
2013-04-15 03:12:00,13.0,9.0,-100.00,SSE,155,2.0,3.0,86,-99.99,,,-99.99,,2013-04-15 09:12:00,
2013-04-15 03:53:00,7.0,3.0,-100.00,SE,140,2.0,2.0,86,-99.99,,,-99.99,,2013-04-15 09:53:00,
2013-04-15 04:02:00,7.0,3.0,-100.00,SE,140,2.0,2.0,86,-99.99,,,-99.99,,2013-04-15 10:02:00,
2013-04-15 04:12:00,7.0,3.0,-100.00,SE,140,2.0,2.0,86,-99.99,,,-99.99,,2013-04-15 10:12:00,
2013-04-15 04:53:00,4.0,0.0,-100.00,East,87,1.0,2.0,84,-99.99,,,-99.99,,2013-04-15 10:53:00,
2013-04-15 05:03:00,4.0,0.0,-100.00,East,87,1.0,2.0,84,-99.99,,,-99.99,,2013-04-15 11:03:00,
2013-04-15 05:12:00,4.0,0.0,-100.00,East,87,1.0,2.0,84,-99.99,,,-99.99,,2013-04-15 11:12:00,
2013-04-15 05:53:00,5.0,1.0,-100.00,ESE,105,2.0,3.0,86,-99.99,,,-99.99,,2013-04-15 11:53:00,
2013-04-15 06:03:00,5.0,1.0,-100.00,ESE,105,2.0,3.0,86,-99.99,,,-99.99,,2013-04-15 12:03:00,
2013-04-15 06:13:00,5.0,1.0,-100.00,ESE,105,2.0,3.0,86,-99.99,,,-99.99,,2013-04-15 12:13:00,
2013-04-15 06:53:00,7.0,4.0,-100.00,ESE,119,0.0,1.0,86,-99.99,,,-99.99,,2013-04-15 12:53:00,
2013-04-15 07:03:00,7.0,4.0,-100.00,ESE,119,0.0,1.0,86,-99.99,,,-99.99,,2013-04-15 13:03:00,
2013-04-15 07:12:00,7.0,4.0,-100.00,ESE,119,0.0,1.0,86,-99.99,,,-99.99,,2013-04-15 13:12:00,
2013-04-15 07:53:00,8.0,4.0,-100.00,ESE,106,0.0,1.0,85,-99.99,,,-99.99,,2013-04-15 13:53:00,
2013-04-15 08:04:00,8.0,4.0,-100.00,ESE,106,0.0,1.0,85,-99.99,,,-99.99,,2013-04-15 14:04:00,
2013-04-15 08:12:00,8.0,4.0,-100.00,ESE,106,0.0,1.0,85,-99.99,,,-99.99,,2013-04-15 14:12:00,
2013-04-15 08:54:00,15.0,10.0,-100.00,North,351,5.0,6.0,80,-99.99,,,-99.99,,2013-04-15 14:54:00,
2013-04-15 09:03:00,15.0,10.0,-100.00,North,351,5.0,6.0,80,-99.99,,,-99.99,,2013-04-15 15:03:00,
2013-04-15 09:12:00,15.0,10.0,-100.00,North,351,5.0,6.0,80,-99.99,,,-99.99,,2013-04-15 15:12:00,
2013-04-15 09:54:00,18.0,10.0,-100.00,NW,322,1.0,5.0,71,-99.99,,,-99.99,,2013-04-15 15:54:00,
2013-04-15 10:04:00,18.0,10.0,-100.00,NW,322,1.0,5.0,71,-99.99,,,-99.99,,2013-04-15 16:04:00,
2013-04-15 10:13:00,18.0,10.0,-100.00,NW,322,1.0,5.0,71,-99.99,,,-99.99,,2013-04-15 16:13:00,
2013-04-15 10:54:00,21.0,11.0,-100.00,North,355,5.0,7.0,64,-99.99,,,-99.99,,2013-04-15 16:54:00,
2013-04-15 11:03:00,21.0,11.0,-100.00,North,355,5.0,7.0,64,-99.99,,,-99.99,,2013-04-15 17:03:00,
2013-04-15 11:14:00,21.0,11.0,-100.00,North,355,5.0,7.0,64,-99.99,,,-99.99,,2013-04-15 17:14:00,
2013-04-15 11:52:00,24.0,14.0,-100.00,NNW,336,2.0,5.0,65,-99.99,,,-99.99,,2013-04-15 17:52:00,
2013-04-15 12:03:00,24.0,14.0,-100.00,NNW,336,2.0,5.0,65,-99.99,,,-99.99,,2013-04-15 18:03:00,
2013-04-15 12:12:00,24.0,14.0,-100.00,NNW,336,2.0,5.0,65,-99.99,,,-99.99,,2013-04-15 18:12:00,
2013-04-15 12:52:00,29.0,17.0,-100.00,NW,321,4.0,8.0,61,-99.99,,,-99.99,,2013-04-15 18:52:00,
2013-04-15 13:02:00,29.0,17.0,-100.00,NW,321,4.0,8.0,61,-99.99,,,-99.99,,2013-04-15 19:02:00,
2013-04-15 13:12:00,29.0,17.0,-100.00,NW,321,4.0,8.0,61,-99.99,,,-99.99,,2013-04-15 19:12:00,
2013-04-15 14:01:00,28.0,15.0,-100.00,ENE,67,1.0,1.0,59,-99.99,,,-99.99,,2013-04-15 20:01:00,
2013-04-15 14:02:00,28.0,15.0,-100.00,ENE,67,1.0,1.0,59,-99.99,,,-99.99,,2013-04-15 20:02:00,
2013-04-15 14:11:00,28.0,15.0,-100.00,ENE,67,1.0,1.0,59,-99.99,,,-99.99,,2013-04-15 20:11:00,
2013-04-15 14:52:00,27.0,16.0,-100.00,North,4,3.0,6.0,63,-99.99,,,-99.99,,2013-04-15 20:52:00,
2013-04-15 15:02:00,27.0,16.0,-100.00,North,4,3.0,6.0,63,-99.99,,,-99.99,,2013-04-15 21:02:00,
2013-04-15 15:12:00,27.0,16.0,-100.00,North,4,3.0,6.0,63,-99.99,,,-99.99,,2013-04-15 21:12:00,
2013-04-15 15:53:00,28.0,18.0,-100.00,North,355,4.0,6.0,66,-99.99,,,-99.99,,2013-04-15 21:53:00,
2013-04-15 16:02:00,28.0,18.0,-100.00,North,355,4.0,6.0,66,-99.99,,,-99.99,,2013-04-15 22:02:00,
2013-04-15 16:13:00,28.0,18.0,-100.00,North,355,4.0,6.0,66,-99.99,,,-99.99,,2013-04-15 22:13:00,
2013-04-15 16:52:00,27.0,18.0,-100.00,North,352,4.0,6.0,69,-99.99,,,-99.99,,2013-04-15 22:52:00,
2013-04-15 17:02:00,27.0,18.0,-100.00,North,352,4.0,6.0,69,-99.99,,,-99.99,,2013-04-15 23:02:00,
2013-04-15 17:12:00,27.0,18.0,-100.00,North,352,4.0,6.0,69,-99.99,,,-99.99,,2013-04-15 23:12:00,
2013-04-15 17:52:00,24.0,17.0,-100.00,East,92,3.0,4.0,74,-99.99,,,-99.99,,2013-04-15 23:52:00,
2013-04-15 18:02:00,24.0,17.0,-100.00,East,92,3.0,4.0,74,-99.99,,,-99.99,,2013-04-16 00:02:00,
2013-04-15 18:12:00,24.0,17.0,-100.00,East,92,3.0,4.0,74,-99.99,,,-99.99,,2013-04-16 00:12:00,
2013-04-15 18:52:00,24.0,17.0,-100.00,NNE,27,5.0,10.0,74,-99.99,,,-99.99,,2013-04-16 00:52:00,
2013-04-15 19:02:00,24.0,17.0,-100.00,NNE,27,5.0,10.0,74,-99.99,,,-99.99,,2013-04-16 01:02:00,
2013-04-15 19:12:00,24.0,17.0,-100.00,NNE,27,5.0,10.0,74,-99.99,,,-99.99,,2013-04-16 01:12:00,
2013-04-15 19:52:00,22.0,19.0,-100.00,NE,34,5.0,8.0,86,-99.99,,,-99.99,,2013-04-16 01:52:00,
2013-04-15 20:02:00,22.0,19.0,-100.00,NE,34,5.0,8.0,86,-99.99,,,-99.99,,2013-04-16 02:02:00,
2013-04-15 20:12:00,22.0,19.0,-100.00,NE,34,5.0,8.0,86,-99.99,,,-99.99,,2013-04-16 02:12:00,
2013-04-15 20:52:00,20.0,16.0,-100.00,North,356,4.0,7.0,85,-99.99,,,-99.99,,2013-04-16 02:52:00,
2013-04-15 21:02:00,20.0,16.0,-100.00,North,356,4.0,7.0,85,-99.99,,,-99.99,,2013-04-16 03:02:00,
2013-04-15 21:12:00,20.0,16.0,-100.00,North,356,4.0,7.0,85,-99.99,,,-99.99,,2013-04-16 03:12:00,
2013-04-15 22:53:00,17.0,12.0,-100.00,NW,325,1.0,2.0,81,-99.99,,,-99.99,,2013-04-16 04:53:00,
2013-04-15 23:02:00,17.0,12.0,-100.00,NW,325,1.0,2.0,81,-99.99,,,-99.99,,2013-04-16 05:02:00,
2013-04-15 23:12:00,17.0,12.0,-100.00,NW,325,1.0,2.0,81,-99.99,,,-99.99,,2013-04-16 05:12:00,
2013-04-15 23:52:00,15.0,10.0,-100.00,NW,311,6.0,8.0,83,-99.99,,,-99.99,,2013-04-16 05:52:00,